This is the latest recevied weather packets stored in our database for station/object DL2AKT-13. If no packets are shown the sender has not sent any weather packets the latest 10 day(s).
| Time | Temp. | Humidity | Pressure | Rain* | Wind** | Luminosity | Snow |
|---|---|---|---|---|---|---|---|
| 1777700730 | 13.89° C | 55% | 1022.7 hPa | 0 mm | - | - | - |
| 1777696225 | 11.11° C | 61% | 1022.6 hPa | 0 mm | - | - | - |
| 1777695327 | 11.11° C | 61% | 1022.6 hPa | 0 mm | - | - | - |
| 1777688108 | 12.78° C | 57% | 1023.3 hPa | 0 mm | - | - | - |
| 1777680993 | 12.78° C | 61% | 1024 hPa | 0 mm | - | - | - |
| 1777676451 | 12.78° C | 61% | 1024.4 hPa | 0 mm | - | - | - |
| 1777670143 | 13.89° C | 59% | 1024.7 hPa | 0 mm | - | - | - |
| 1777669253 | 13.89° C | 58% | 1024.8 hPa | 0 mm | - | - | - |
| 1777664738 | 15.56° C | 54% | 1024.8 hPa | 0 mm | - | - | - |
| 1777661135 | 17.22° C | 49% | 1024.7 hPa | 0 mm | - | - | - |
| 1777652126 | 22.22° C | 35% | 1025.1 hPa | 0 mm | - | - | - |
| 1777646715 | 22.22° C | 35% | 1026.1 hPa | 0 mm | - | - | - |
| 1777645814 | 22.22° C | 35% | 1026.2 hPa | 0 mm | - | - | - |
| 1777638655 | 20.56° C | 38% | 1027.6 hPa | 0 mm | - | - | - |
| 1777632339 | 18.33° C | 45% | 1028.6 hPa | 0 mm | - | - | - |
| 1777631437 | 17.78° C | 46% | 1028.8 hPa | 0 mm | - | - | - |
| 1777623307 | 13.89° C | 53% | 1029.6 hPa | 0 mm | - | - | - |
| 1777620658 | 12.78° C | 56% | 1029.7 hPa | 0 mm | - | - | - |
| 1777619759 | 12.22° C | 56% | 1029.8 hPa | 0 mm | - | - | - |
| 1777616142 | 10° C | 60% | 1029.5 hPa | 0 mm | - | - | - |
| 1777613405 | 8.33° C | 64% | 1029.4 hPa | 0 mm | - | - | - |
| 1777609803 | 6.67° C | 68% | 1029.5 hPa | 0 mm | - | - | - |
| 1777608902 | 6.67° C | 70% | 1029.4 hPa | 0 mm | - | - | - |
| 1777608003 | 5.56° C | 72% | 1029.3 hPa | 0 mm | - | - | - |
| 1777605353 | 7.78° C | 63% | 1029.3 hPa | 0 mm | - | - | - |
* Rain latest hour (hover to see other rain measurements)
** Current wind speed in m/s (hover to see current wind gust speed)